createdAt,value
2024-03-08T00:00:20.640Z,83.90
2024-03-08T00:02:49.120Z,84.90
2024-03-08T00:05:17.541Z,84.62
2024-03-08T00:07:45.612Z,85.22
2024-03-08T00:10:15.765Z,84.44
2024-03-08T00:12:46.105Z,84.98
2024-03-08T00:15:18.066Z,85.13
2024-03-08T00:17:48.363Z,84.37
2024-03-08T00:20:19.849Z,85.85
2024-03-08T00:22:48.740Z,84.95
2024-03-08T00:25:17.493Z,84.80
2024-03-08T00:27:45.602Z,84.97
2024-03-08T00:30:15.705Z,85.43
2024-03-08T00:32:43.974Z,85.25
2024-03-08T00:35:13.513Z,85.06
2024-03-08T00:37:43.255Z,86.00
2024-03-08T00:40:12.168Z,89.78
2024-03-08T00:42:41.157Z,87.66
2024-03-08T00:45:11.775Z,85.35
2024-03-08T00:47:43.520Z,84.83
2024-03-08T00:50:12.376Z,85.13
2024-03-08T00:52:40.308Z,81.37
2024-03-08T00:55:09.292Z,81.37
2024-03-08T00:57:37.233Z,82.47
2024-03-08T01:00:10.715Z,83.46
2024-03-08T01:02:38.821Z,84.22
2024-03-08T01:05:09.051Z,84.67
2024-03-08T01:07:37.236Z,85.14
2024-03-08T01:10:05.642Z,85.26
2024-03-08T01:12:33.727Z,85.16
2024-03-08T01:15:01.806Z,85.22
2024-03-08T01:17:30.063Z,85.58
2024-03-08T01:19:58.153Z,85.50
2024-03-08T01:22:29.354Z,85.44
2024-03-08T01:24:57.458Z,85.95
2024-03-08T01:27:25.896Z,86.01
2024-03-08T01:29:53.928Z,85.62
2024-03-08T01:32:24.100Z,85.83
2024-03-08T01:34:52.154Z,85.94
2024-03-08T01:37:20.189Z,85.89
2024-03-08T01:39:49.512Z,86.08
2024-03-08T01:42:18.793Z,86.57
2024-03-08T01:44:47.015Z,86.56
2024-03-08T01:47:15.041Z,86.86
2024-03-08T01:49:43.380Z,86.74
2024-03-08T01:52:12.434Z,86.85
2024-03-08T01:54:42.045Z,86.90
2024-03-08T01:57:11.517Z,87.04
2024-03-08T01:59:40.230Z,87.08
2024-03-08T02:02:10.589Z,87.04
2024-03-08T02:04:39.966Z,87.40
2024-03-08T02:07:10.982Z,87.31
2024-03-08T02:09:40.529Z,87.18
2024-03-08T02:12:09.912Z,87.34
2024-03-08T02:14:42.110Z,87.19
2024-03-08T02:17:10.371Z,87.05
2024-03-08T02:19:38.367Z,87.30
2024-03-08T02:22:08.392Z,87.64
2024-03-08T02:24:36.889Z,87.96
2024-03-08T02:27:05.080Z,87.98
2024-03-08T02:29:35.097Z,87.74
2024-03-08T02:32:04.374Z,87.85
2024-03-08T02:34:33.543Z,87.87
2024-03-08T02:37:01.458Z,87.96
2024-03-08T02:39:30.876Z,87.90
2024-03-08T02:41:59.021Z,88.22
2024-03-08T02:44:27.097Z,88.17
2024-03-08T02:46:56.417Z,88.16
2024-03-08T02:49:24.448Z,88.52
2024-03-08T02:51:52.567Z,88.55
2024-03-08T02:54:20.668Z,88.60
2024-03-08T02:56:52.233Z,88.65
2024-03-08T02:59:20.418Z,88.76
2024-03-08T03:01:48.320Z,88.97
2024-03-08T03:04:16.356Z,89.22
2024-03-08T03:06:44.267Z,89.28
2024-03-08T03:09:12.771Z,89.34
2024-03-08T03:11:41.089Z,89.41
2024-03-08T03:14:10.649Z,89.46
2024-03-08T03:16:38.525Z,89.71
2024-03-08T03:19:07.218Z,89.54
2024-03-08T03:21:36.997Z,89.52
2024-03-08T03:24:11.499Z,90.06
2024-03-08T03:26:41.877Z,90.01
2024-03-08T03:29:12.349Z,90.19
2024-03-08T03:31:41.393Z,90.10
2024-03-08T03:34:10.202Z,90.09
2024-03-08T03:36:39.324Z,90.08
2024-03-08T03:39:12.021Z,90.32
2024-03-08T03:41:40.254Z,90.45
2024-03-08T03:44:08.865Z,90.34
2024-03-08T03:46:38.253Z,90.47
2024-03-08T03:49:06.139Z,90.41
2024-03-08T03:51:34.281Z,90.69
2024-03-08T03:54:04.859Z,90.63
2024-03-08T03:56:32.841Z,90.91
2024-03-08T03:59:00.946Z,90.84
2024-03-08T04:01:28.934Z,90.85
2024-03-08T04:04:00.658Z,91.34
2024-03-08T04:06:28.664Z,91.16
2024-03-08T04:08:56.664Z,91.01
2024-03-08T04:11:24.586Z,91.09
2024-03-08T04:13:53.891Z,90.92
2024-03-08T04:16:21.929Z,90.75
2024-03-08T04:18:50.031Z,90.90
2024-03-08T04:21:20.387Z,90.52
2024-03-08T04:23:48.297Z,90.65
2024-03-08T04:26:18.656Z,90.60
2024-03-08T04:28:47.573Z,90.60
2024-03-08T04:31:16.908Z,90.86
2024-03-08T04:33:45.718Z,90.64
2024-03-08T04:36:14.952Z,90.84
2024-03-08T04:38:44.610Z,90.75
2024-03-08T04:41:12.609Z,90.89
2024-03-08T04:43:41.001Z,90.79
2024-03-08T04:46:09.031Z,91.00
2024-03-08T04:48:38.236Z,90.71
2024-03-08T04:51:07.037Z,90.87
2024-03-08T04:53:35.717Z,90.83
2024-03-08T04:56:07.375Z,90.55
2024-03-08T04:58:37.725Z,90.68
2024-03-08T05:01:06.401Z,90.51
2024-03-08T05:03:34.301Z,90.62
2024-03-08T05:06:02.447Z,90.60
2024-03-08T05:08:30.536Z,90.67
2024-03-08T05:10:58.801Z,90.75
2024-03-08T05:13:28.368Z,90.58
2024-03-08T05:15:59.399Z,90.65
2024-03-08T05:18:29.571Z,90.67
2024-03-08T05:20:57.577Z,90.59
2024-03-08T05:23:25.850Z,90.54
2024-03-08T05:25:53.713Z,90.40
2024-03-08T05:28:22.049Z,90.49
2024-03-08T05:30:51.272Z,90.42
2024-03-08T05:33:20.561Z,90.33
2024-03-08T05:36:07.776Z,90.36
2024-03-08T05:38:35.702Z,90.78
2024-03-08T05:41:03.803Z,90.87
2024-03-08T05:43:31.815Z,90.92
2024-03-08T05:46:01.183Z,90.85
2024-03-08T05:48:29.213Z,90.81
2024-03-08T05:50:58.182Z,90.82
2024-03-08T05:53:26.314Z,90.68
2024-03-08T05:55:54.591Z,90.61
2024-03-08T05:58:22.699Z,90.69
2024-03-08T06:00:52.993Z,90.80
2024-03-08T06:03:23.101Z,90.89
2024-03-08T06:05:51.256Z,90.90
2024-03-08T06:08:20.084Z,90.67
2024-03-08T06:10:52.142Z,90.66
2024-03-08T06:13:20.052Z,90.58
2024-03-08T06:15:48.035Z,90.43
2024-03-08T06:18:16.307Z,90.41
2024-03-08T06:20:47.432Z,90.38
2024-03-08T06:23:18.668Z,90.02
2024-03-08T06:25:47.252Z,89.91
2024-03-08T06:28:15.373Z,89.92
2024-03-08T06:30:44.331Z,89.33
2024-03-08T06:33:12.753Z,88.38
2024-03-08T06:35:40.881Z,87.39
2024-03-08T06:38:10.349Z,86.54
2024-03-08T06:40:38.380Z,85.81
2024-03-08T06:43:07.556Z,84.83
2024-03-08T06:45:38.034Z,83.93
2024-03-08T06:48:11.035Z,83.58
2024-03-08T06:50:39.139Z,83.05
2024-03-08T06:53:07.279Z,84.30
2024-03-08T06:55:36.838Z,84.19
2024-03-08T06:58:04.915Z,80.41
2024-03-08T07:00:33.201Z,80.69
2024-03-08T07:03:02.046Z,80.13
2024-03-08T07:05:32.113Z,76.75
2024-03-08T07:08:00.638Z,76.18
2024-03-08T07:10:29.826Z,73.08
2024-03-08T07:12:59.135Z,75.69
2024-03-08T07:15:27.246Z,75.23
2024-03-08T07:17:55.332Z,74.53
2024-03-08T07:20:23.570Z,74.90
2024-03-08T07:22:52.418Z,75.19
2024-03-08T07:25:23.710Z,74.56
2024-03-08T07:27:53.765Z,73.74
2024-03-08T07:30:41.803Z,74.02
2024-03-08T07:33:13.289Z,71.61
2024-03-08T07:35:41.812Z,68.64
2024-03-08T07:38:11.012Z,70.88
2024-03-08T07:40:41.648Z,69.16
2024-03-08T07:43:09.889Z,69.66
2024-03-08T07:45:39.374Z,67.13
2024-03-08T07:48:11.075Z,66.55
2024-03-08T07:50:40.709Z,68.81
2024-03-08T07:53:09.494Z,67.24
2024-03-08T07:55:38.865Z,66.44
2024-03-08T07:58:07.638Z,64.25
2024-03-08T08:00:37.552Z,65.70
2024-03-08T08:03:09.291Z,65.86
2024-03-08T08:05:39.634Z,67.92
2024-03-08T08:08:11.949Z,68.09
2024-03-08T08:10:40.588Z,68.17
2024-03-08T08:13:09.017Z,67.64
2024-03-08T08:15:36.906Z,68.39
2024-03-08T08:18:08.192Z,68.97
2024-03-08T08:20:36.336Z,67.17
2024-03-08T08:23:04.671Z,66.42
2024-03-08T08:25:35.752Z,68.22
2024-03-08T08:28:05.305Z,67.31
2024-03-08T08:30:34.947Z,66.12
2024-03-08T08:33:04.280Z,66.00
2024-03-08T08:35:34.342Z,66.82
2024-03-08T08:38:04.815Z,66.85
2024-03-08T08:40:33.270Z,64.13
2024-03-08T08:43:01.502Z,63.47
2024-03-08T08:45:29.581Z,62.88
2024-03-08T08:47:57.667Z,62.72
2024-03-08T08:50:25.920Z,61.36
2024-03-08T08:52:55.426Z,60.86
2024-03-08T08:55:27.031Z,61.61
2024-03-08T08:57:57.376Z,62.89
2024-03-08T09:00:29.020Z,63.61
2024-03-08T09:02:59.065Z,61.50
2024-03-08T09:05:27.726Z,61.62
2024-03-08T09:07:57.912Z,61.77
2024-03-08T09:10:30.735Z,62.30
2024-03-08T09:13:00.654Z,61.70
2024-03-08T09:15:30.313Z,61.54
2024-03-08T09:17:58.846Z,61.70
2024-03-08T09:20:26.789Z,61.15
2024-03-08T09:22:56.195Z,62.04
2024-03-08T09:25:26.590Z,62.64
2024-03-08T09:27:55.414Z,60.92
2024-03-08T09:30:23.554Z,61.26
2024-03-08T09:32:52.731Z,59.42
2024-03-08T09:35:21.440Z,60.85
2024-03-08T09:37:52.958Z,60.75
2024-03-08T09:40:21.460Z,62.24
2024-03-08T09:42:51.855Z,61.29
2024-03-08T09:45:23.363Z,61.09
2024-03-08T09:47:51.348Z,62.02
2024-03-08T09:50:19.920Z,61.39
2024-03-08T09:52:50.508Z,61.11
2024-03-08T09:55:23.286Z,62.00
2024-03-08T09:58:11.979Z,62.38
2024-03-08T10:00:40.070Z,61.58
2024-03-08T10:03:08.001Z,60.79
2024-03-08T10:05:36.028Z,58.23
2024-03-08T10:08:03.972Z,59.30
2024-03-08T10:10:31.901Z,62.21
2024-03-08T10:13:01.694Z,61.69
2024-03-08T10:15:30.370Z,61.25
2024-03-08T10:17:59.147Z,61.57
2024-03-08T10:20:27.627Z,61.40
2024-03-08T10:23:06.437Z,60.85
2024-03-08T10:25:38.799Z,61.22
2024-03-08T10:28:08.400Z,60.57
2024-03-08T10:30:36.390Z,61.28
2024-03-08T10:33:06.690Z,60.13
2024-03-08T10:35:34.982Z,60.30
2024-03-08T10:38:08.145Z,60.11
2024-03-08T10:40:37.495Z,60.51
2024-03-08T10:43:06.497Z,59.29
2024-03-08T10:45:37.863Z,58.48
2024-03-08T10:48:17.451Z,59.51
2024-03-08T10:50:46.792Z,60.68
2024-03-08T10:53:16.329Z,60.45
2024-03-08T10:55:46.001Z,60.72
2024-03-08T10:58:13.976Z,59.51
2024-03-08T11:00:43.306Z,60.35
2024-03-08T11:03:50.055Z,58.67
2024-03-08T11:06:24.325Z,59.74
2024-03-08T11:08:52.657Z,58.55
2024-03-08T11:11:36.162Z,58.38
2024-03-08T11:14:05.448Z,56.96
2024-03-08T11:16:45.157Z,57.26
2024-03-08T11:19:30.230Z,60.01
2024-03-08T11:22:02.603Z,59.74
2024-03-08T11:24:39.217Z,59.02
2024-03-08T11:27:07.908Z,58.61
2024-03-08T11:29:41.347Z,61.00
2024-03-08T11:32:12.882Z,58.56
2024-03-08T11:34:44.494Z,58.70
2024-03-08T11:37:14.288Z,58.02
2024-03-08T11:39:42.548Z,58.56
2024-03-08T11:42:12.615Z,59.60
2024-03-08T11:44:44.574Z,59.26
2024-03-08T11:47:13.934Z,61.06
2024-03-08T11:49:45.426Z,61.02
2024-03-08T11:52:14.729Z,59.17
2024-03-08T11:54:42.725Z,58.78
2024-03-08T11:57:11.072Z,59.03
2024-03-08T11:59:39.125Z,57.72
2024-03-08T12:02:08.522Z,58.43
2024-03-08T12:04:38.146Z,59.97
2024-03-08T12:07:10.166Z,61.48
2024-03-08T12:09:38.401Z,58.69
2024-03-08T12:12:09.632Z,58.05
2024-03-08T12:14:37.859Z,59.73
2024-03-08T12:17:07.246Z,58.86
2024-03-08T12:19:35.273Z,58.57
2024-03-08T12:22:12.357Z,58.02
2024-03-08T12:24:42.389Z,57.94
2024-03-08T12:27:22.867Z,58.40
2024-03-08T12:29:52.417Z,60.45
2024-03-08T12:32:20.312Z,59.59
2024-03-08T12:34:54.980Z,55.89
2024-03-08T12:37:24.899Z,57.05
2024-03-08T12:39:52.926Z,57.80
2024-03-08T12:42:21.123Z,58.22
2024-03-08T12:44:49.093Z,58.35
2024-03-08T12:47:16.980Z,58.85
2024-03-08T12:49:46.449Z,59.62
2024-03-08T12:52:14.413Z,57.56
2024-03-08T12:54:44.013Z,56.44
2024-03-08T12:57:11.900Z,57.25
2024-03-08T12:59:39.907Z,56.82
2024-03-08T13:02:08.268Z,56.19
2024-03-08T13:04:37.194Z,56.92
2024-03-08T13:07:05.695Z,56.20
2024-03-08T13:09:38.444Z,56.15
2024-03-08T13:12:09.620Z,55.86
2024-03-08T13:14:38.159Z,56.72
2024-03-08T13:17:06.660Z,56.93
2024-03-08T13:19:35.418Z,56.72
2024-03-08T13:22:05.466Z,57.72
2024-03-08T13:24:34.858Z,58.22
2024-03-08T13:27:02.904Z,58.59
2024-03-08T13:29:35.034Z,58.77
2024-03-08T13:32:04.550Z,57.93
2024-03-08T13:34:36.264Z,57.07
2024-03-08T13:37:07.161Z,57.09
2024-03-08T13:39:41.568Z,57.76
2024-03-08T13:42:11.009Z,57.11
2024-03-08T13:44:41.430Z,56.05
2024-03-08T13:47:09.533Z,57.00
2024-03-08T13:49:37.828Z,56.69
2024-03-08T13:52:06.472Z,56.68
2024-03-08T13:54:34.456Z,58.57
2024-03-08T13:57:04.858Z,58.50
2024-03-08T13:59:34.092Z,57.45
2024-03-08T14:02:04.437Z,57.07
2024-03-08T14:04:32.607Z,58.02
2024-03-08T14:07:04.878Z,58.16
2024-03-08T14:09:32.417Z,58.08
2024-03-08T14:12:00.593Z,57.95
2024-03-08T14:14:28.727Z,58.23
2024-03-08T14:16:59.473Z,57.46
2024-03-08T14:19:28.976Z,57.52
2024-03-08T14:21:57.045Z,57.98
2024-03-08T14:24:25.104Z,58.01
2024-03-08T14:26:53.123Z,58.05
2024-03-08T14:29:21.231Z,58.08
2024-03-08T14:31:49.136Z,58.37
2024-03-08T14:34:17.714Z,58.75
2024-03-08T14:36:47.071Z,58.41
2024-03-08T14:39:16.330Z,59.05
2024-03-08T14:41:44.668Z,59.11
2024-03-08T14:44:13.051Z,59.23
2024-03-08T14:46:41.242Z,59.29
2024-03-08T14:49:09.346Z,59.68
2024-03-08T14:51:37.285Z,60.07
2024-03-08T14:54:07.663Z,60.30
2024-03-08T14:56:36.346Z,60.13
2024-03-08T14:59:06.259Z,60.37
2024-03-08T15:01:37.069Z,61.62
2024-03-08T15:04:09.997Z,62.29
2024-03-08T15:06:38.469Z,62.31
2024-03-08T15:09:12.405Z,61.64
2024-03-08T15:11:40.965Z,61.98
2024-03-08T15:14:11.661Z,62.70
2024-03-08T15:16:41.128Z,61.97
2024-03-08T15:19:09.171Z,62.04
2024-03-08T15:21:37.680Z,62.12
2024-03-08T15:24:11.348Z,61.93
2024-03-08T15:26:39.883Z,62.59
2024-03-08T15:29:08.044Z,62.53
2024-03-08T15:31:36.004Z,62.72
2024-03-08T15:34:08.018Z,62.93
2024-03-08T15:36:35.995Z,62.96
2024-03-08T15:39:05.384Z,63.19
2024-03-08T15:41:35.874Z,63.66
2024-03-08T15:44:04.406Z,63.77
2024-03-08T15:46:34.039Z,63.96
2024-03-08T15:49:03.279Z,63.89
2024-03-08T15:51:32.121Z,63.86
2024-03-08T15:54:00.003Z,63.34
2024-03-08T15:56:28.548Z,63.34
2024-03-08T15:58:57.925Z,63.26
2024-03-08T16:01:26.873Z,63.39
2024-03-08T16:03:56.153Z,63.49
2024-03-08T16:06:25.769Z,63.74
2024-03-08T16:08:53.919Z,64.00
2024-03-08T16:11:23.363Z,63.71
2024-03-08T16:13:51.730Z,63.76
2024-03-08T16:16:23.030Z,64.42
2024-03-08T16:18:51.122Z,64.43
2024-03-08T16:21:19.121Z,64.17
2024-03-08T16:23:49.766Z,64.60
2024-03-08T16:26:18.914Z,64.91
2024-03-08T16:28:47.214Z,64.91
2024-03-08T16:31:15.885Z,65.16
2024-03-08T16:33:46.225Z,65.54
2024-03-08T16:36:15.328Z,65.52
2024-03-08T16:38:46.394Z,65.67
2024-03-08T16:41:15.294Z,65.72
2024-03-08T16:43:44.852Z,65.76
2024-03-08T16:46:13.966Z,65.93
2024-03-08T16:48:42.113Z,66.20
2024-03-08T16:51:11.459Z,66.42
2024-03-08T16:53:42.547Z,66.71
2024-03-08T16:56:13.666Z,66.66
2024-03-08T16:58:43.847Z,66.58
2024-03-08T17:01:12.215Z,66.67
2024-03-08T17:03:47.989Z,66.54
2024-03-08T17:06:27.144Z,66.65
2024-03-08T17:08:55.490Z,66.81
2024-03-08T17:11:23.906Z,66.80
2024-03-08T17:13:51.984Z,66.89
2024-03-08T17:16:25.548Z,67.33
2024-03-08T17:18:56.942Z,67.45
2024-03-08T17:21:26.338Z,67.66
2024-03-08T17:23:54.384Z,67.79
2024-03-08T17:26:22.461Z,68.03
2024-03-08T17:28:51.146Z,68.25
2024-03-08T17:31:19.688Z,68.66
2024-03-08T17:33:48.733Z,68.63
2024-03-08T17:36:17.996Z,68.52
2024-03-08T17:38:50.204Z,68.94
2024-03-08T17:41:23.727Z,69.07
2024-03-08T17:43:52.967Z,69.03
2024-03-08T17:46:21.431Z,69.07
2024-03-08T17:48:49.413Z,69.29
2024-03-08T17:51:17.556Z,69.23
2024-03-08T17:53:50.326Z,69.45
2024-03-08T17:56:18.698Z,69.58
2024-03-08T17:58:46.798Z,69.35
2024-03-08T18:01:15.059Z,69.30
2024-03-08T18:03:43.436Z,69.27
2024-03-08T18:06:11.469Z,69.27
2024-03-08T18:08:39.523Z,69.25
2024-03-08T18:11:09.399Z,69.16
2024-03-08T18:13:37.687Z,69.33
2024-03-08T18:16:08.769Z,69.61
2024-03-08T18:18:38.277Z,69.65
2024-03-08T18:21:07.488Z,69.74
2024-03-08T18:23:35.439Z,69.88
2024-03-08T18:26:03.737Z,70.07
2024-03-08T18:28:33.106Z,70.24
2024-03-08T18:31:01.695Z,70.43
2024-03-08T18:33:33.843Z,70.45
2024-03-08T18:36:02.074Z,70.79
2024-03-08T18:38:30.266Z,70.72
2024-03-08T18:40:59.819Z,70.77
2024-03-08T18:43:28.967Z,70.83
2024-03-08T18:46:00.051Z,71.09
2024-03-08T18:48:28.805Z,71.29
2024-03-08T18:51:00.115Z,71.57
2024-03-08T18:53:29.891Z,71.58
2024-03-08T18:55:57.869Z,71.59
2024-03-08T18:58:30.993Z,71.83
2024-03-08T19:01:08.353Z,71.86
2024-03-08T19:03:39.113Z,72.08
2024-03-08T19:06:07.740Z,72.17
2024-03-08T19:08:37.684Z,72.49
2024-03-08T19:11:06.293Z,72.52
2024-03-08T19:13:34.757Z,72.59
2024-03-08T19:16:02.660Z,72.48
2024-03-08T19:18:32.155Z,72.43
2024-03-08T19:21:00.113Z,72.46
2024-03-08T19:23:32.150Z,72.89
2024-03-08T19:26:00.300Z,73.08
2024-03-08T19:28:28.225Z,73.35
2024-03-08T19:30:56.831Z,73.71
2024-03-08T19:33:25.477Z,73.78
2024-03-08T19:35:54.885Z,73.77
2024-03-08T19:38:22.790Z,73.85
2024-03-08T19:40:52.972Z,74.08
2024-03-08T19:43:22.724Z,74.40
2024-03-08T19:45:53.320Z,74.66
2024-03-08T19:48:22.187Z,74.97
2024-03-08T19:50:52.035Z,74.97
2024-03-08T19:53:21.358Z,75.25
2024-03-08T19:55:51.253Z,75.59
2024-03-08T19:58:21.743Z,75.52
2024-03-08T20:00:50.908Z,75.26
2024-03-08T20:03:24.507Z,75.40
2024-03-08T20:05:54.825Z,75.51
2024-03-08T20:08:29.825Z,75.37
2024-03-08T20:11:03.450Z,75.78
2024-03-08T20:13:35.478Z,75.88
2024-03-08T20:16:04.384Z,75.97
2024-03-08T20:18:36.024Z,75.97
2024-03-08T20:21:04.756Z,76.21
2024-03-08T20:23:34.140Z,76.67
2024-03-08T20:26:06.304Z,77.07
2024-03-08T20:28:34.499Z,76.99
2024-03-08T20:31:02.681Z,76.99
2024-03-08T20:33:33.139Z,77.20
2024-03-08T20:36:02.270Z,77.14
2024-03-08T20:38:30.792Z,77.36
2024-03-08T20:41:00.347Z,77.22
2024-03-08T20:43:28.447Z,77.41
2024-03-08T20:45:56.670Z,77.63
2024-03-08T20:48:26.094Z,77.66
2024-03-08T20:50:54.984Z,77.59
2024-03-08T20:53:22.942Z,77.86
2024-03-08T20:55:54.209Z,77.94
2024-03-08T20:58:24.426Z,77.95
2024-03-08T21:00:56.611Z,78.05
2024-03-08T21:03:26.458Z,78.27
2024-03-08T21:05:56.657Z,78.29
2024-03-08T21:08:28.499Z,78.34
2024-03-08T21:10:58.216Z,78.69
2024-03-08T21:13:28.754Z,78.77
2024-03-08T21:15:59.176Z,78.85
2024-03-08T21:18:27.921Z,78.71
2024-03-08T21:20:57.143Z,78.66
2024-03-08T21:23:26.674Z,78.77
2024-03-08T21:25:55.171Z,78.65
2024-03-08T21:28:30.484Z,78.84
2024-03-08T21:31:02.118Z,79.06
2024-03-08T21:33:30.401Z,79.19
2024-03-08T21:36:00.057Z,79.22
2024-03-08T21:38:28.098Z,79.03
2024-03-08T21:41:02.673Z,78.81
2024-03-08T21:43:36.087Z,78.72
2024-03-08T21:46:06.276Z,78.60
2024-03-08T21:48:34.507Z,78.41
2024-03-08T21:51:02.725Z,78.44
2024-03-08T21:53:35.151Z,78.51
2024-03-08T21:56:04.713Z,78.48
2024-03-08T21:58:34.391Z,78.27
2024-03-08T22:01:02.503Z,78.30
2024-03-08T22:03:34.762Z,78.31
2024-03-08T22:06:11.010Z,78.32
2024-03-08T22:08:41.627Z,78.98
2024-03-08T22:11:09.955Z,79.10
2024-03-08T22:13:38.119Z,78.95
2024-03-08T22:16:06.712Z,79.24
2024-03-08T22:18:38.393Z,79.40
2024-03-08T22:21:07.945Z,79.25
2024-03-08T22:23:36.239Z,79.48
2024-03-08T22:26:09.768Z,79.41
2024-03-08T22:28:38.025Z,79.58
2024-03-08T22:31:07.724Z,79.58
2024-03-08T22:33:40.047Z,79.30
2024-03-08T22:36:09.129Z,79.40
2024-03-08T22:38:38.130Z,79.29
2024-03-08T22:41:11.490Z,79.62
2024-03-08T22:43:42.226Z,79.82
2024-03-08T22:46:11.172Z,80.23
2024-03-08T22:48:42.808Z,80.55
2024-03-08T22:51:12.744Z,80.65
2024-03-08T22:53:42.567Z,80.80
2024-03-08T22:56:10.606Z,80.78
2024-03-08T22:58:38.588Z,80.65
2024-03-08T23:01:06.538Z,80.86
2024-03-08T23:03:36.781Z,81.19
2024-03-08T23:06:09.276Z,81.33
2024-03-08T23:08:37.188Z,80.92
2024-03-08T23:11:12.554Z,81.36
2024-03-08T23:13:43.478Z,81.45
2024-03-08T23:16:11.475Z,81.76
2024-03-08T23:18:39.321Z,81.34
2024-03-08T23:21:09.792Z,81.04
2024-03-08T23:23:38.152Z,81.08
2024-03-08T23:26:07.771Z,80.82
2024-03-08T23:28:35.913Z,80.88
2024-03-08T23:31:03.934Z,80.40
2024-03-08T23:33:31.920Z,80.47
2024-03-08T23:35:59.939Z,80.44
2024-03-08T23:38:29.366Z,80.43
2024-03-08T23:40:57.360Z,80.72
2024-03-08T23:43:26.633Z,80.83
2024-03-08T23:45:55.235Z,80.93
2024-03-08T23:48:23.354Z,80.98
2024-03-08T23:50:52.156Z,80.89
2024-03-08T23:53:20.177Z,81.04
2024-03-08T23:55:50.782Z,81.03
2024-03-08T23:58:19.874Z,80.92
